createdAt,value
2018-08-20T00:00:20.492Z,29.4
2018-08-20T00:01:10.529Z,29.4
2018-08-20T00:02:00.640Z,29.4
2018-08-20T00:02:50.699Z,29.4
2018-08-20T00:03:40.741Z,29.4
2018-08-20T00:04:29.043Z,29.4
2018-08-20T00:05:20.059Z,29.4
2018-08-20T00:06:10.376Z,29.4
2018-08-20T00:06:59.973Z,29.4
2018-08-20T00:07:50.548Z,29.4
2018-08-20T00:08:40.908Z,29.4
2018-08-20T00:09:31.209Z,29.4
2018-08-20T00:10:21.185Z,29.4
2018-08-20T00:11:11.339Z,29.4
2018-08-20T00:12:00.548Z,29.4
2018-08-20T00:12:50.911Z,29.4
2018-08-20T00:13:40.956Z,29.4
2018-08-20T00:14:31.605Z,29.4
2018-08-20T00:15:21.413Z,29.4
2018-08-20T00:16:11.239Z,29.4
2018-08-20T00:17:01.727Z,29.4
2018-08-20T00:17:51.501Z,29.4
2018-08-20T00:18:41.357Z,29.4
2018-08-20T00:37:29.317Z,29.4
2018-08-20T00:38:18.636Z,29.4
2018-08-20T00:39:08.688Z,29.4
2018-08-20T00:39:59.066Z,29.4
2018-08-20T00:40:49.069Z,29.4
2018-08-20T00:41:38.879Z,29.4
2018-08-20T00:42:28.675Z,29.4
2018-08-20T00:43:18.981Z,29.4
2018-08-20T00:44:09.867Z,29.4
2018-08-20T00:44:59.158Z,29.4
2018-08-20T00:45:49.646Z,29.4
2018-08-20T00:46:39.527Z,29.4
2018-08-20T00:47:28.249Z,29.4
2018-08-20T00:48:19.484Z,29.4
2018-08-20T00:49:08.403Z,29.4
2018-08-20T00:49:59.036Z,29.4
2018-08-20T00:50:49.614Z,29.4
2018-08-20T00:51:39.913Z,29.4
2018-08-20T00:52:29.797Z,29.4
2018-08-20T00:53:20.321Z,29.4
2018-08-20T00:54:10.391Z,29.4
2018-08-20T00:55:00.442Z,29.4
2018-08-20T00:55:50.276Z,29.4
2018-08-20T00:56:40.014Z,29.4
2018-08-20T00:57:29.510Z,29.4
2018-08-20T00:58:20.461Z,29.4
2018-08-20T00:59:10.495Z,29.4
2018-08-20T01:00:00.620Z,29.4
2018-08-20T01:00:49.566Z,29.4
2018-08-20T01:01:40.485Z,29.4
2018-08-20T01:02:31.342Z,29.4
2018-08-20T01:03:21.131Z,29.4
2018-08-20T01:04:11.140Z,29.4
2018-08-20T01:05:00.329Z,29.4
2018-08-20T01:05:51.528Z,29.4
2018-08-20T01:06:41.000Z,29.4
2018-08-20T01:07:31.367Z,29.4
2018-08-20T01:08:21.140Z,29.4
2018-08-20T01:09:10.987Z,29.4
2018-08-20T01:10:01.302Z,29.4
2018-08-20T01:10:51.907Z,29.4
2018-08-20T01:11:41.722Z,29.4
2018-08-20T01:12:30.937Z,29.4
2018-08-20T01:13:21.253Z,29.4
2018-08-20T01:14:11.625Z,29.4
2018-08-20T01:15:01.402Z,29.4
2018-08-20T01:15:51.510Z,29.4
2018-08-20T01:16:41.054Z,29.4
2018-08-20T01:17:31.130Z,29.4
2018-08-20T01:18:21.940Z,29.4
2018-08-20T01:19:11.505Z,29.4
2018-08-20T01:20:01.600Z,29.4
2018-08-20T01:20:52.705Z,29.4
2018-08-20T01:21:42.722Z,29.4
2018-08-20T01:22:31.441Z,29.4
2018-08-20T01:23:22.617Z,29.4
2018-08-20T01:24:12.685Z,29.4
2018-08-20T01:25:02.481Z,29.4
2018-08-20T01:25:52.581Z,29.4
2018-08-20T01:26:43.149Z,29.4
2018-08-20T01:27:33.266Z,29.4
2018-08-20T01:28:23.023Z,29.4
2018-08-20T01:29:13.408Z,29.4
2018-08-20T01:30:02.600Z,29.4
2018-08-20T01:30:53.464Z,29.4
2018-08-20T01:31:43.014Z,29.4
2018-08-20T01:32:33.041Z,29.4
2018-08-20T01:33:23.119Z,29.4
2018-08-20T01:34:13.523Z,29.4
2018-08-20T01:35:03.067Z,29.4
2018-08-20T01:35:53.633Z,29.4
2018-08-20T01:36:43.448Z,29.4
2018-08-20T01:37:32.620Z,29.4
2018-08-20T01:38:23.861Z,29.4
2018-08-20T01:39:14.170Z,29.4
2018-08-20T01:40:03.072Z,29.4
2018-08-20T01:40:54.001Z,29.4
2018-08-20T01:41:44.021Z,29.4
2018-08-20T01:42:34.101Z,29.4
2018-08-20T01:43:23.893Z,29.4
2018-08-20T01:44:14.504Z,29.4
2018-08-20T01:45:04.293Z,29.4
2018-08-20T01:45:53.803Z,29.4
2018-08-20T01:46:43.833Z,29.4
2018-08-20T01:47:34.476Z,29.4
2018-08-20T01:48:24.525Z,29.4
2018-08-20T01:49:14.318Z,29.4
2018-08-20T01:50:03.913Z,29.4
2018-08-20T01:50:55.006Z,29.4
2018-08-20T01:51:44.848Z,29.4
2018-08-20T01:52:34.283Z,29.4
2018-08-20T01:53:24.716Z,29.4
2018-08-20T01:54:14.999Z,29.3
2018-08-20T01:55:05.336Z,29.4
2018-08-20T01:55:54.805Z,29.3
2018-08-20T01:56:45.191Z,29.4
2018-08-20T01:57:35.517Z,29.4
2018-08-20T01:58:25.609Z,29.3
2018-08-20T01:59:14.815Z,29.3
2018-08-20T02:00:05.783Z,29.4
2018-08-20T02:00:54.696Z,29.3
2018-08-20T02:01:45.007Z,29.4
2018-08-20T02:02:35.086Z,29.3
2018-08-20T02:03:24.413Z,29.3
2018-08-20T02:04:14.772Z,29.3
2018-08-20T02:05:05.352Z,29.3
2018-08-20T02:05:55.104Z,29.3
2018-08-20T02:06:44.100Z,29.3
2018-08-20T02:07:35.004Z,29.3
2018-08-20T02:08:25.082Z,29.3
2018-08-20T02:09:15.179Z,29.3
2018-08-20T02:10:05.438Z,29.3
2018-08-20T02:10:55.208Z,29.3
2018-08-20T02:11:45.838Z,29.3
2018-08-20T02:12:35.648Z,29.3
2018-08-20T02:13:25.784Z,29.3
2018-08-20T02:14:14.674Z,29.3
2018-08-20T02:15:06.504Z,29.3
2018-08-20T02:15:56.124Z,29.3
2018-08-20T02:16:45.892Z,29.3
2018-08-20T02:17:36.208Z,29.3
2018-08-20T02:18:26.607Z,29.3
2018-08-20T02:19:16.081Z,29.3
2018-08-20T02:20:06.136Z,29.3
2018-08-20T02:20:54.928Z,29.3
2018-08-20T02:21:45.883Z,29.3
2018-08-20T02:22:36.363Z,29.3
2018-08-20T02:23:26.653Z,29.3
2018-08-20T02:24:16.471Z,29.3
2018-08-20T02:25:06.805Z,29.3
2018-08-20T02:25:56.101Z,29.3
2018-08-20T02:26:47.245Z,29.3
2018-08-20T02:27:37.036Z,29.3
2018-08-20T02:28:27.186Z,29.3
2018-08-20T02:29:16.336Z,29.3
2018-08-20T02:30:07.481Z,29.3
2018-08-20T02:30:57.805Z,29.3
2018-08-20T02:31:47.597Z,29.3
2018-08-20T02:32:37.955Z,29.3
2018-08-20T02:33:27.784Z,29.3
2018-08-20T02:34:17.598Z,29.3
2018-08-20T02:35:07.607Z,29.3
2018-08-20T02:35:57.422Z,29.3
2018-08-20T02:36:48.037Z,29.3
2018-08-20T02:37:38.080Z,29.3
2018-08-20T02:38:28.429Z,29.3
2018-08-20T02:39:17.651Z,29.3
2018-08-20T02:40:08.313Z,29.3
2018-08-20T02:40:57.504Z,29.3
2018-08-20T02:41:48.465Z,29.3
2018-08-20T02:42:38.551Z,29.3
2018-08-20T02:43:28.349Z,29.3
2018-08-20T02:44:17.863Z,29.3
2018-08-20T02:45:08.246Z,29.3
2018-08-20T02:45:58.285Z,29.3
2018-08-20T02:46:48.048Z,29.3
2018-08-20T02:47:38.663Z,29.3
2018-08-20T02:48:28.943Z,29.3
2018-08-20T02:49:19.324Z,29.3
2018-08-20T02:50:09.678Z,29.3
2018-08-20T02:50:59.399Z,29.3
2018-08-20T02:51:49.457Z,29.2
2018-08-20T02:52:39.503Z,29.3
2018-08-20T02:53:29.266Z,29.3
2018-08-20T02:54:19.636Z,29.3
2018-08-20T02:55:09.171Z,29.3
2018-08-20T02:55:59.722Z,29.3
2018-08-20T02:56:49.867Z,29.3
2018-08-20T02:57:39.598Z,29.4
2018-08-20T02:58:29.662Z,29.4
2018-08-20T02:59:20.304Z,29.4
2018-08-20T03:00:10.107Z,29.4
2018-08-20T03:00:59.931Z,29.4
2018-08-20T03:01:49.331Z,29.4
2018-08-20T03:02:39.426Z,29.4
2018-08-20T03:03:30.076Z,29.4
2018-08-20T03:04:20.103Z,29.4
2018-08-20T03:05:10.208Z,29.4
2018-08-20T03:06:00.237Z,29.4
2018-08-20T03:06:50.581Z,29.4
2018-08-20T03:07:40.216Z,29.4
2018-08-20T03:08:30.513Z,29.4
2018-08-20T03:09:20.358Z,29.4
2018-08-20T03:10:09.828Z,29.4
2018-08-20T03:11:00.387Z,29.4
2018-08-20T03:11:51.018Z,29.4
2018-08-20T03:12:40.795Z,29.5
2018-08-20T03:13:31.152Z,29.5
2018-08-20T03:14:20.920Z,29.5
2018-08-20T03:15:10.997Z,29.5
2018-08-20T03:16:01.424Z,29.5
2018-08-20T03:16:50.688Z,29.5
2018-08-20T03:17:41.326Z,29.5
2018-08-20T03:18:30.513Z,29.5
2018-08-20T03:19:21.340Z,29.5
2018-08-20T03:20:11.696Z,29.6
2018-08-20T03:21:02.120Z,29.5
2018-08-20T03:21:51.505Z,29.5
2018-08-20T03:22:41.912Z,29.6
2018-08-20T03:23:31.902Z,29.6
2018-08-20T03:24:22.232Z,29.6
2018-08-20T03:25:27.014Z,29.6
2018-08-20T03:26:02.157Z,29.6
2018-08-20T03:26:52.453Z,29.6
2018-08-20T03:27:42.477Z,29.6
2018-08-20T03:28:31.983Z,29.6
2018-08-20T03:29:22.247Z,29.6
2018-08-20T03:30:12.397Z,29.6
2018-08-20T03:31:02.815Z,29.6
2018-08-20T03:31:52.841Z,29.6
2018-08-20T03:32:42.355Z,29.6
2018-08-20T03:33:32.725Z,29.6
2018-08-20T03:34:23.027Z,29.6
2018-08-20T03:35:13.069Z,29.6
2018-08-20T03:36:03.027Z,29.6
2018-08-20T03:36:53.011Z,29.6
2018-08-20T03:37:43.287Z,29.6
2018-08-20T03:38:33.351Z,29.6
2018-08-20T03:39:23.349Z,29.6
2018-08-20T03:40:12.893Z,29.6
2018-08-20T03:41:03.292Z,29.6
2018-08-20T03:41:53.578Z,29.6
2018-08-20T03:42:43.399Z,29.6
2018-08-20T03:43:33.654Z,29.6
2018-08-20T03:44:23.523Z,29.6
2018-08-20T03:45:13.566Z,29.6
2018-08-20T03:46:03.963Z,29.6
2018-08-20T03:46:53.701Z,29.6
2018-08-20T03:47:43.789Z,29.6
2018-08-20T03:48:34.106Z,29.6
2018-08-20T03:49:23.357Z,29.6
2018-08-20T03:50:13.972Z,29.6
2018-08-20T03:51:04.077Z,29.6
2018-08-20T03:51:54.112Z,29.7
2018-08-20T03:52:44.205Z,29.7
2018-08-20T03:53:34.527Z,29.6
2018-08-20T03:54:24.031Z,29.6
2018-08-20T03:55:13.120Z,29.7
2018-08-20T03:56:03.112Z,29.7
2018-08-20T03:56:53.717Z,29.6
2018-08-20T03:57:43.166Z,29.6
2018-08-20T03:58:33.848Z,29.7
2018-08-20T03:59:24.234Z,29.7
2018-08-20T04:00:13.950Z,29.7
2018-08-20T04:01:03.380Z,29.6
2018-08-20T04:01:53.579Z,29.7
2018-08-20T04:02:43.721Z,29.7
2018-08-20T04:03:34.773Z,29.7
2018-08-20T04:04:25.409Z,29.7
2018-08-20T04:05:15.107Z,29.7
2018-08-20T04:06:05.449Z,29.7
2018-08-20T04:06:54.935Z,29.7
2018-08-20T04:07:45.381Z,29.7
2018-08-20T04:08:35.379Z,29.7
2018-08-20T04:09:25.112Z,29.7
2018-08-20T04:10:15.494Z,29.7
2018-08-20T04:11:05.547Z,29.7
2018-08-20T04:11:55.334Z,29.7
2018-08-20T04:12:45.398Z,29.7
2018-08-20T04:13:35.486Z,29.7
2018-08-20T04:14:25.879Z,29.7
2018-08-20T04:15:15.308Z,29.8
2018-08-20T04:16:06.221Z,29.7
2018-08-20T04:16:56.444Z,29.8
2018-08-20T04:17:46.329Z,29.7
2018-08-20T04:18:36.156Z,29.7
2018-08-20T04:19:26.191Z,29.8
2018-08-20T04:20:15.970Z,29.7
2018-08-20T04:21:06.629Z,29.8
2018-08-20T04:21:56.162Z,29.7
2018-08-20T04:22:46.760Z,29.8
2018-08-20T04:23:36.569Z,29.7
2018-08-20T04:24:26.352Z,29.7
2018-08-20T04:25:16.123Z,29.7
2018-08-20T04:26:07.017Z,29.7
2018-08-20T04:26:57.095Z,29.8
2018-08-20T04:27:46.938Z,29.8
2018-08-20T04:28:36.994Z,29.8
2018-08-20T04:29:27.321Z,29.8
2018-08-20T04:30:17.043Z,29.8
2018-08-20T04:31:07.161Z,29.8
2018-08-20T04:31:57.229Z,29.7
2018-08-20T04:32:47.014Z,29.7
2018-08-20T04:33:36.761Z,29.7
2018-08-20T04:34:27.401Z,29.7
2018-08-20T04:35:17.190Z,29.8
2018-08-20T04:36:07.221Z,29.7
2018-08-20T04:36:57.904Z,29.8
2018-08-20T04:37:47.686Z,29.8
2018-08-20T04:38:37.227Z,29.8
2018-08-20T04:39:27.292Z,29.7
2018-08-20T04:40:18.088Z,29.8
2018-08-20T04:41:08.193Z,29.8
2018-08-20T04:41:58.220Z,29.8
2018-08-20T04:42:48.015Z,29.8
2018-08-20T04:43:38.395Z,29.8
2018-08-20T04:44:27.928Z,29.8
2018-08-20T04:45:18.488Z,29.8
2018-08-20T04:46:08.276Z,29.8
2018-08-20T04:46:57.774Z,29.8
2018-08-20T04:47:48.410Z,29.8
2018-08-20T04:48:38.497Z,29.8
2018-08-20T05:06:42.217Z,29.8
2018-08-20T05:07:31.688Z,29.8
2018-08-20T05:08:21.267Z,29.8
2018-08-20T05:09:12.380Z,29.8
2018-08-20T05:10:02.686Z,29.8
2018-08-20T05:10:52.442Z,29.7
2018-08-20T05:11:42.224Z,29.7
2018-08-20T05:12:32.291Z,29.7
2018-08-20T05:13:22.637Z,29.7
2018-08-20T05:14:12.731Z,29.6
2018-08-20T05:15:02.297Z,29.6
2018-08-20T05:15:52.883Z,29.6
2018-08-20T05:16:42.456Z,29.6
2018-08-20T05:17:32.748Z,29.6
2018-08-20T05:18:22.783Z,29.6
2018-08-20T05:19:13.131Z,29.6
2018-08-20T05:20:02.926Z,29.5
2018-08-20T05:20:53.004Z,29.5
2018-08-20T05:21:43.049Z,29.5
2018-08-20T05:22:33.134Z,29.5
2018-08-20T05:23:23.196Z,29.5
2018-08-20T05:24:13.506Z,29.5
2018-08-20T05:25:03.630Z,29.5
2018-08-20T05:25:53.645Z,29.5
2018-08-20T05:26:43.444Z,29.4
2018-08-20T05:27:33.774Z,29.4
2018-08-20T05:28:23.839Z,29.4
2018-08-20T05:29:12.554Z,29.4
2018-08-20T05:30:03.986Z,29.4
2018-08-20T05:30:54.017Z,29.4
2018-08-20T05:31:43.819Z,29.4
2018-08-20T05:32:34.194Z,29.4
2018-08-20T05:33:24.501Z,29.4
2018-08-20T05:34:13.396Z,29.4
2018-08-20T05:35:04.292Z,29.4
2018-08-20T05:35:54.075Z,29.4
2018-08-20T05:36:43.871Z,29.3
2018-08-20T05:37:34.016Z,29.3
2018-08-20T05:38:24.558Z,29.3
2018-08-20T05:39:14.634Z,29.3
2018-08-20T05:40:04.731Z,29.3
2018-08-20T05:40:54.201Z,29.3
2018-08-20T05:41:44.541Z,29.3
2018-08-20T05:42:34.918Z,29.3
2018-08-20T05:43:25.016Z,29.3
2018-08-20T05:44:14.436Z,29.3
2018-08-20T05:45:05.126Z,29.3
2018-08-20T05:45:54.930Z,29.3
2018-08-20T05:46:45.253Z,29.3
2018-08-20T05:47:35.323Z,29.3
2018-08-20T05:48:25.130Z,29.3
2018-08-20T05:49:15.405Z,29.3
2018-08-20T05:50:05.470Z,29.3
2018-08-20T05:50:55.515Z,29.3
2018-08-20T05:51:45.425Z,29.3
2018-08-20T05:52:36.905Z,29.3
2018-08-20T05:53:25.842Z,29.3
2018-08-20T05:54:13.537Z,29.3
2018-08-20T05:55:05.918Z,29.3
2018-08-20T05:55:55.723Z,34.9
2018-08-20T05:56:46.072Z,37.3
2018-08-20T05:57:36.148Z,39.4
2018-08-20T05:58:25.920Z,41
2018-08-20T05:59:17.080Z,41.6
2018-08-20T06:00:06.397Z,41.3
2018-08-20T06:00:55.239Z,40.8
2018-08-20T06:01:46.180Z,40.5
2018-08-20T06:02:36.202Z,40.2
2018-08-20T06:03:25.749Z,39.9
2018-08-20T06:04:16.154Z,39.6
2018-08-20T06:05:06.753Z,39.3
2018-08-20T06:05:56.504Z,39.1
2018-08-20T06:06:46.864Z,38.8
2018-08-20T06:07:36.927Z,38.6
2018-08-20T06:08:27.005Z,38.4
2018-08-20T06:09:16.739Z,38.1
2018-08-20T06:10:06.898Z,37.9
2018-08-20T06:10:56.892Z,37.8
2018-08-20T06:11:46.374Z,37.6
2018-08-20T06:12:36.992Z,37.4
2018-08-20T06:13:26.743Z,37.2
2018-08-20T06:14:17.101Z,37.1
2018-08-20T06:15:07.620Z,37.6
2018-08-20T06:15:57.259Z,40.6
2018-08-20T06:16:47.309Z,41.5
2018-08-20T06:17:37.366Z,43.1
2018-08-20T06:18:27.447Z,43.8
2018-08-20T06:19:16.984Z,43.9
2018-08-20T06:20:07.632Z,43.9
2018-08-20T06:20:57.369Z,43.9
2018-08-20T06:21:47.732Z,44
2018-08-20T06:22:38.955Z,44.2
2018-08-20T06:23:28.189Z,44.4
2018-08-20T06:24:17.896Z,44.4
2018-08-20T06:25:08.888Z,44.5
2018-08-20T06:25:57.771Z,44.5
2018-08-20T06:26:48.092Z,44.6
2018-08-20T06:27:37.884Z,44.7
2018-08-20T06:28:28.677Z,44.8
2018-08-20T06:29:18.602Z,44.9
2018-08-20T06:30:08.679Z,45.1
2018-08-20T06:30:58.749Z,45.2
2018-08-20T06:31:47.934Z,45.3
2018-08-20T06:32:38.896Z,45.4
2018-08-20T06:33:28.642Z,45.6
2018-08-20T06:34:18.976Z,45.5
2018-08-20T06:35:08.733Z,45.6
2018-08-20T06:35:59.104Z,45.6
2018-08-20T06:36:49.280Z,45.7
2018-08-20T06:37:39.258Z,45.8
2018-08-20T06:38:28.873Z,45.9
2018-08-20T06:39:18.798Z,46.1
2018-08-20T06:40:08.828Z,46.1
2018-08-20T06:40:59.501Z,46.3
2018-08-20T06:41:49.419Z,46.3
2018-08-20T06:42:39.338Z,46.4
2018-08-20T06:43:29.395Z,46.4
2018-08-20T06:44:19.429Z,46.6
2018-08-20T06:45:08.868Z,46.6
2018-08-20T06:45:59.281Z,46.8
2018-08-20T06:46:49.635Z,46.8
2018-08-20T06:47:39.384Z,46.9
2018-08-20T06:48:29.753Z,47
2018-08-20T06:49:20.133Z,47.1
2018-08-20T06:50:09.857Z,47.2
2018-08-20T06:50:59.934Z,47.3
2018-08-20T06:51:50.341Z,47.4
2018-08-20T06:52:39.490Z,47.5
2018-08-20T06:53:30.127Z,47.6
2018-08-20T06:54:20.492Z,47.7
2018-08-20T06:55:10.582Z,47.8
2018-08-20T06:55:59.783Z,47.9
2018-08-20T06:56:49.850Z,47.9
2018-08-20T06:57:40.767Z,48.1
2018-08-20T06:58:30.499Z,48.1
2018-08-20T06:59:20.335Z,48.2
2018-08-20T07:00:10.660Z,48.4
2018-08-20T07:01:00.982Z,48.4
2018-08-20T07:01:51.117Z,48.5
2018-08-20T07:02:41.162Z,48.6
2018-08-20T07:03:31.239Z,48.7
2018-08-20T07:04:21.049Z,48.8
2018-08-20T07:05:11.411Z,48.9
2018-08-20T07:06:01.179Z,49
2018-08-20T07:06:51.263Z,49.1
2018-08-20T07:07:41.245Z,49.2
2018-08-20T07:08:31.346Z,49.3
2018-08-20T07:09:21.726Z,49.4
2018-08-20T07:10:11.878Z,49.5
2018-08-20T07:11:01.842Z,49.6
2018-08-20T07:11:52.275Z,49.7
2018-08-20T07:12:41.961Z,49.8
2018-08-20T07:13:32.074Z,49.9
2018-08-20T07:14:22.156Z,50
2018-08-20T07:15:12.193Z,50.1
2018-08-20T07:16:02.278Z,50.2
2018-08-20T07:16:52.058Z,50.3
2018-08-20T07:17:42.266Z,50.4
2018-08-20T07:18:31.637Z,50.5
2018-08-20T07:19:22.531Z,50.6
2018-08-20T07:20:12.005Z,50.7
2018-08-20T07:21:01.845Z,50.8
2018-08-20T07:21:52.665Z,50.9
2018-08-20T07:22:42.150Z,51
2018-08-20T07:23:33.028Z,51.1
2018-08-20T07:24:22.221Z,51.2
2018-08-20T07:25:12.068Z,51.3
2018-08-20T07:26:02.500Z,51.4
2018-08-20T07:26:52.808Z,51.5
2018-08-20T07:27:42.620Z,51.6
2018-08-20T07:28:32.908Z,51.8
2018-08-20T07:29:22.668Z,51.9
2018-08-20T07:31:03.393Z,52.1
2018-08-20T07:31:52.968Z,52.2
2018-08-20T07:32:42.955Z,52.3
2018-08-20T07:33:33.590Z,52.3
2018-08-20T07:34:23.332Z,52.4
2018-08-20T07:35:13.437Z,52.5
2018-08-20T07:36:03.757Z,52.6
2018-08-20T07:36:53.512Z,52.7
2018-08-20T07:37:43.381Z,52.8
2018-08-20T07:38:33.970Z,52.9
2018-08-20T07:39:23.757Z,53.1
2018-08-20T07:40:14.114Z,53.2
2018-08-20T07:41:04.127Z,53.3
2018-08-20T07:41:54.166Z,53.4
2018-08-20T07:42:44.260Z,53.3
2018-08-20T07:43:33.759Z,52.9
2018-08-20T07:44:24.357Z,52.7
2018-08-20T07:45:14.435Z,52.6
2018-08-20T07:46:04.546Z,52.8
2018-08-20T07:46:54.568Z,52.8
2018-08-20T07:47:44.606Z,52.9
2018-08-20T07:48:34.685Z,53
2018-08-20T07:49:24.483Z,53.1
2018-08-20T07:50:14.541Z,53.1
2018-08-20T07:51:05.174Z,53.2
2018-08-20T07:51:55.254Z,53.2
2018-08-20T07:52:45.054Z,53.3
2018-08-20T07:53:34.971Z,53.3
2018-08-20T07:54:25.148Z,53.4
2018-08-20T07:55:14.643Z,53.5
2018-08-20T07:56:05.246Z,53.4
2018-08-20T07:56:55.283Z,53.3
2018-08-20T07:57:45.071Z,53.3
2018-08-20T07:58:35.191Z,53.3
2018-08-20T07:59:25.519Z,53.4
2018-08-20T08:00:15.534Z,53.5
2018-08-20T08:01:05.356Z,53.6
2018-08-20T08:01:55.686Z,53.7
2018-08-20T08:02:45.776Z,53.7
2018-08-20T08:03:35.559Z,53.6
2018-08-20T08:04:25.858Z,53.6
2018-08-20T08:05:15.950Z,53.6
2018-08-20T08:06:05.521Z,53.7
2018-08-20T08:06:55.807Z,53.8
2018-08-20T08:07:45.583Z,53.8
2018-08-20T08:08:35.673Z,53.9
2018-08-20T08:09:25.522Z,54.1
2018-08-20T08:10:16.393Z,54.3
2018-08-20T08:11:06.421Z,54.4
2018-08-20T08:11:56.482Z,54.6
2018-08-20T08:12:46.525Z,54.8
2018-08-20T08:13:36.306Z,55
2018-08-20T08:14:26.740Z,55.1
2018-08-20T08:15:16.468Z,55.3
2018-08-20T08:16:06.044Z,55.4
2018-08-20T08:16:56.902Z,55.5
2018-08-20T08:17:47.002Z,55.7
2018-08-20T08:18:36.777Z,55.8
2018-08-20T08:19:26.630Z,55.8
2018-08-20T08:20:16.884Z,55.8
2018-08-20T08:21:06.373Z,55.9
2018-08-20T08:21:57.273Z,55.9
2018-08-20T08:22:47.068Z,56.1
2018-08-20T08:23:37.470Z,56.2
2018-08-20T08:24:27.180Z,56.3
2018-08-20T08:25:17.407Z,56.4
2018-08-20T08:26:07.394Z,56.6
2018-08-20T08:26:57.690Z,56.8
2018-08-20T08:27:47.474Z,56.8
2018-08-20T08:28:37.531Z,57
2018-08-20T08:29:27.142Z,57.1
2018-08-20T08:30:17.662Z,57.2
2018-08-20T08:31:08.047Z,57.3
2018-08-20T08:31:57.292Z,57.4
2018-08-20T08:32:47.869Z,57.6
2018-08-20T08:33:38.214Z,57.7
2018-08-20T08:34:28.264Z,57.8
2018-08-20T08:35:18.024Z,57.9
2018-08-20T08:36:07.759Z,58
2018-08-20T08:36:58.422Z,58.1
2018-08-20T08:37:48.204Z,58.2
2018-08-20T08:38:38.564Z,58.4
2018-08-20T08:39:28.701Z,58.4
2018-08-20T08:41:08.776Z,58.6
2018-08-20T08:41:58.548Z,58.8
2018-08-20T08:42:48.638Z,58.8
2018-08-20T08:43:38.918Z,58.9
2018-08-20T08:44:29.001Z,59
2018-08-20T08:45:18.237Z,59.1
2018-08-20T08:46:08.868Z,59.3
2018-08-20T08:46:58.696Z,59.3
2018-08-20T08:47:49.275Z,59.4
2018-08-20T08:48:39.381Z,59.5
2018-08-20T08:49:29.431Z,59.6
2018-08-20T08:50:19.243Z,59.7
2018-08-20T08:51:09.588Z,59.8
2018-08-20T08:51:59.411Z,59.9
2018-08-20T08:52:49.168Z,60
2018-08-20T08:53:39.780Z,60
2018-08-20T08:54:29.833Z,60.1
2018-08-20T08:55:19.880Z,60.3
2018-08-20T08:56:09.947Z,60.3
2018-08-20T08:57:00.015Z,60.3
2018-08-20T08:57:49.530Z,60.4
2018-08-20T08:58:40.162Z,60.5
2018-08-20T08:59:30.217Z,60.6
2018-08-20T09:00:20.463Z,60.6
2018-08-20T09:01:10.524Z,60.8
2018-08-20T09:02:00.445Z,60.9
2018-08-20T09:02:50.457Z,61
2018-08-20T09:03:40.540Z,60.9
2018-08-20T09:04:30.658Z,60.7
2018-08-20T09:21:09.504Z,61.8
2018-08-20T09:21:59.221Z,61.9
2018-08-20T09:22:49.855Z,62
2018-08-20T09:23:39.906Z,62.1
2018-08-20T09:24:29.944Z,62.1
2018-08-20T09:25:19.997Z,62.2
2018-08-20T09:26:09.786Z,62.3
2018-08-20T09:27:00.129Z,62.3
2018-08-20T09:27:50.189Z,62.4
2018-08-20T09:28:40.002Z,62.4
2018-08-20T09:29:30.136Z,62.5
2018-08-20T09:30:20.447Z,62.6
2018-08-20T09:31:09.986Z,62.6
2018-08-20T09:32:00.296Z,62.6
2018-08-20T09:32:50.388Z,62.6
2018-08-20T09:33:40.467Z,62.8
2018-08-20T09:34:30.201Z,62.8
2018-08-20T09:35:20.345Z,62.8
2018-08-20T09:36:10.145Z,62.8
2018-08-20T09:37:00.698Z,62.8
2018-08-20T09:37:50.506Z,62.8
2018-08-20T09:38:41.023Z,62.8
2018-08-20T09:39:31.199Z,62.9
2018-08-20T09:40:20.958Z,63
2018-08-20T09:41:10.596Z,63.1
2018-08-20T09:42:01.121Z,63.2
2018-08-20T09:42:51.205Z,63.3
2018-08-20T09:43:41.674Z,63.3
2018-08-20T09:44:30.774Z,63.4
2018-08-20T09:45:21.363Z,63.4
2018-08-20T09:46:11.218Z,63.5
2018-08-20T09:47:01.537Z,63.6
2018-08-20T09:47:51.765Z,63.6
2018-08-20T09:48:41.875Z,63.7
2018-08-20T09:49:31.960Z,63.8
2018-08-20T09:50:22.017Z,63.8
2018-08-20T09:51:11.804Z,63.9
2018-08-20T09:52:01.931Z,63.9
2018-08-20T09:52:51.717Z,63.9
2018-08-20T09:53:42.264Z,64
2018-08-20T09:54:32.292Z,64.1
2018-08-20T09:55:22.384Z,64.1
2018-08-20T09:56:12.159Z,64.2
2018-08-20T09:57:02.502Z,64.3
2018-08-20T09:57:52.389Z,64.4
2018-08-20T09:58:42.372Z,64.4
2018-08-20T09:59:32.735Z,64.4
2018-08-20T10:00:22.507Z,64.5
2018-08-20T10:01:12.817Z,64.6
2018-08-20T10:02:02.904Z,64.6
2018-08-20T10:02:52.946Z,64.7
2018-08-20T10:03:43.041Z,64.7
2018-08-20T10:04:33.138Z,64.5
2018-08-20T10:05:23.141Z,64.4
2018-08-20T10:06:12.741Z,64.5
2018-08-20T10:07:03.369Z,64.6
2018-08-20T10:07:53.393Z,64.6
2018-08-20T10:08:43.407Z,64.5
2018-08-20T10:09:34.129Z,64.3
2018-08-20T10:10:23.683Z,64
2018-08-20T10:11:13.514Z,63.8
2018-08-20T10:12:03.884Z,63.6
2018-08-20T10:12:53.224Z,63.4
2018-08-20T10:13:43.834Z,63.6
2018-08-20T10:14:33.639Z,63.9
2018-08-20T10:15:23.991Z,64.2
2018-08-20T10:16:13.764Z,64.4
2018-08-20T10:17:03.886Z,64.5
2018-08-20T10:17:53.619Z,64.6
2018-08-20T10:18:44.372Z,64.7
2018-08-20T10:19:34.336Z,64.8
2018-08-20T10:20:24.096Z,64.9
2018-08-20T10:21:14.188Z,65
2018-08-20T10:22:04.511Z,65.1
2018-08-20T10:22:54.591Z,65.1
2018-08-20T10:23:44.298Z,65.2
2018-08-20T10:24:34.802Z,65.3
2018-08-20T10:25:24.936Z,65.4
2018-08-20T10:26:14.786Z,65.5
2018-08-20T10:27:04.861Z,65.6
2018-08-20T10:27:54.930Z,65.6
2018-08-20T10:28:45.034Z,65.5
2018-08-20T10:29:35.043Z,65.5
2018-08-20T10:30:24.813Z,65.6
2018-08-20T10:31:15.190Z,65.6
2018-08-20T10:32:05.751Z,65.5
2018-08-20T10:32:55.310Z,65.4
2018-08-20T10:33:45.345Z,65.4
2018-08-20T10:34:35.442Z,65.4
2018-08-20T10:35:25.238Z,65.4
2018-08-20T10:36:15.281Z,65.4
2018-08-20T10:37:05.643Z,65.4
2018-08-20T10:37:58.784Z,65.4
2018-08-20T10:38:45.747Z,65.3
2018-08-20T10:39:35.835Z,65.1
2018-08-20T10:40:25.607Z,64.9
2018-08-20T10:41:16.018Z,64.6
2018-08-20T10:42:05.825Z,64.4
2018-08-20T10:42:55.564Z,64.2
2018-08-20T10:43:46.876Z,64
2018-08-20T10:44:36.284Z,63.8
2018-08-20T10:45:26.048Z,63.7
2018-08-20T10:46:16.156Z,63.6
2018-08-20T10:47:06.207Z,63.4
2018-08-20T10:47:56.533Z,63.3
2018-08-20T10:48:46.335Z,63.1
2018-08-20T10:49:36.656Z,62.9
2018-08-20T10:50:26.710Z,62.9
2018-08-20T10:51:16.822Z,62.8
2018-08-20T10:52:06.574Z,62.7
2018-08-20T10:52:56.453Z,62.5
2018-08-20T10:53:45.884Z,62.3
2018-08-20T10:54:36.792Z,61.4
2018-08-20T10:55:26.384Z,60.3
2018-08-20T10:56:17.667Z,59.2
2018-08-20T10:57:06.478Z,58.1
2018-08-20T10:57:57.293Z,59.8
2018-08-20T10:58:47.119Z,60.8
2018-08-20T10:59:37.450Z,60.6
2018-08-20T11:00:27.466Z,59.7
2018-08-20T11:01:17.549Z,58.8
2018-08-20T11:02:09.081Z,58
2018-08-20T11:02:57.649Z,57.4
2018-08-20T11:03:47.716Z,56.9
2018-08-20T11:04:37.257Z,56.4
2018-08-20T11:05:27.848Z,56.1
2018-08-20T11:06:17.916Z,55.6
2018-08-20T11:07:08.095Z,55.2
2018-08-20T11:07:58.033Z,54.8
2018-08-20T11:08:48.147Z,54.3
2018-08-20T11:09:37.701Z,53.9
2018-08-20T11:10:28.262Z,53.5
2018-08-20T11:11:18.357Z,53.1
2018-08-20T11:12:08.373Z,52.7
2018-08-20T11:12:57.981Z,52.3
2018-08-20T11:14:38.390Z,51.6
2018-08-20T11:15:27.598Z,51.3
2018-08-20T11:16:18.685Z,50.9
2018-08-20T11:17:08.248Z,50.6
2018-08-20T11:17:58.908Z,50.3
2018-08-20T11:18:49.838Z,50
2018-08-20T11:19:38.733Z,49.8
2018-08-20T11:20:28.576Z,49.5
2018-08-20T11:21:19.125Z,49.2
2018-08-20T11:22:08.935Z,49
2018-08-20T11:22:59.050Z,48.8
2018-08-20T11:23:48.770Z,48.5
2018-08-20T11:24:38.910Z,48.3
2018-08-20T11:25:29.480Z,48.1
2018-08-20T11:26:19.028Z,47.8
2018-08-20T11:27:09.628Z,47.7
2018-08-20T11:27:59.691Z,47.4
2018-08-20T11:28:49.475Z,47.3
2018-08-20T11:29:39.256Z,47.1
2018-08-20T11:30:29.881Z,46.9
2018-08-20T11:31:19.655Z,46.8
2018-08-20T11:32:09.412Z,46.6
2018-08-20T11:32:59.503Z,46.4
2018-08-20T11:33:49.833Z,46.3
2018-08-20T11:34:39.917Z,46.1
2018-08-20T11:35:30.220Z,46
2018-08-20T11:36:20.262Z,45.8
2018-08-20T11:37:10.360Z,45.7
2018-08-20T11:38:00.395Z,45.6
2018-08-20T11:38:50.195Z,45.4
2018-08-20T11:39:40.272Z,45.3
2018-08-20T11:40:30.584Z,45.2
2018-08-20T11:41:20.625Z,45.1
2018-08-20T11:42:10.465Z,45
2018-08-20T11:43:00.787Z,44.9
2018-08-20T11:43:50.889Z,44.8
2018-08-20T11:44:40.927Z,44.7
2018-08-20T11:45:30.972Z,44.6
2018-08-20T11:46:21.260Z,44.4
2018-08-20T11:47:11.119Z,44.4
2018-08-20T11:48:00.931Z,44.3
2018-08-20T11:48:51.249Z,44.2
2018-08-20T11:49:41.030Z,44.1
2018-08-20T11:50:30.935Z,44
2018-08-20T11:51:21.471Z,43.9
2018-08-20T11:52:11.560Z,43.8
2018-08-20T11:53:01.111Z,43.6
2018-08-20T11:53:50.864Z,43.6
2018-08-20T11:54:40.983Z,43.4
2018-08-20T11:55:31.574Z,43.4
2018-08-20T11:56:21.908Z,43.3
2018-08-20T11:57:11.688Z,43.2
2018-08-20T11:58:01.473Z,43.1
2018-08-20T11:58:51.569Z,43.1
2018-08-20T11:59:42.226Z,43
2018-08-20T12:00:31.738Z,42.9
2018-08-20T12:01:22.301Z,42.8